createdAt,value
2019-03-31T00:01:55.449Z,83.37
2019-03-31T00:04:24.680Z,77.58
2019-03-31T00:06:53.891Z,77.53
2019-03-31T00:09:23.378Z,89.80
2019-03-31T00:11:52.630Z,102.72
2019-03-31T00:14:21.835Z,97.60
2019-03-31T00:16:52.631Z,103.45
2019-03-31T00:19:22.059Z,80.50
2019-03-31T00:21:51.284Z,100.97
2019-03-31T00:24:20.510Z,122.70
2019-03-31T00:26:49.769Z,139.12
2019-03-31T00:29:19.008Z,101.33
2019-03-31T00:31:48.223Z,96.55
2019-03-31T00:34:17.433Z,109.65
2019-03-31T00:36:46.716Z,108.83
2019-03-31T00:39:15.934Z,88.60
2019-03-31T00:41:45.157Z,91.63
2019-03-31T00:44:14.564Z,80.87
2019-03-31T00:46:43.805Z,110.08
2019-03-31T00:49:13.370Z,98.40
2019-03-31T00:51:42.572Z,93.90
2019-03-31T00:54:11.779Z,96.85
2019-03-31T00:56:41.026Z,87.35
2019-03-31T00:59:10.334Z,101.55
2019-03-31T01:01:51.093Z,88.10
2019-03-31T01:04:26.629Z,86.70
2019-03-31T01:06:56.161Z,86.85
2019-03-31T01:09:29.340Z,100.20
2019-03-31T01:14:28.796Z,103.90
2019-03-31T01:16:59.116Z,103.42
2019-03-31T01:19:28.915Z,122.22
2019-03-31T01:21:58.840Z,103.40
2019-03-31T01:24:28.754Z,132.20
2019-03-31T01:26:58.056Z,119.77
2019-03-31T01:29:27.733Z,122.37
2019-03-31T01:31:57.643Z,119.53
2019-03-31T01:34:26.887Z,107.55
2019-03-31T01:36:56.224Z,117.87
2019-03-31T01:39:26.893Z,135.30
2019-03-31T01:41:56.211Z,117.33
2019-03-31T01:44:25.417Z,106.15
2019-03-31T01:46:54.689Z,121.10
2019-03-31T01:49:23.995Z,117.42
2019-03-31T01:51:53.224Z,127.25
2019-03-31T01:54:22.430Z,114.82
2019-03-31T01:56:51.739Z,117.72
2019-03-31T01:59:20.945Z,114.65
2019-03-31T02:02:03.262Z,115.47
2019-03-31T02:04:21.183Z,117.53
2019-03-31T02:06:50.389Z,111.52
2019-03-31T02:09:19.597Z,121.17
2019-03-31T02:11:48.919Z,179.90
2019-03-31T02:14:18.133Z,162.30
2019-03-31T02:16:47.340Z,140.62
2019-03-31T02:19:16.572Z,142.20
2019-03-31T02:21:45.778Z,148.82
2019-03-31T02:24:14.980Z,181.12
2019-03-31T02:26:44.221Z,135.00
2019-03-31T02:29:13.444Z,117.28
2019-03-31T02:31:42.655Z,139.55
2019-03-31T02:34:11.900Z,123.28
2019-03-31T02:36:41.120Z,151.50
2019-03-31T02:39:10.326Z,138.60
2019-03-31T02:41:39.570Z,144.53
2019-03-31T02:44:08.810Z,126.10
2019-03-31T02:46:38.011Z,123.07
2019-03-31T02:49:07.225Z,115.12
2019-03-31T02:51:36.802Z,138.30
2019-03-31T02:54:06.188Z,137.68
2019-03-31T02:56:35.580Z,123.75
2019-03-31T02:59:04.965Z,133.32
2019-03-31T03:01:35.040Z,138.72
2019-03-31T03:04:07.940Z,136.68
2019-03-31T03:06:37.262Z,138.77
2019-03-31T03:09:07.290Z,147.00
2019-03-31T03:11:36.793Z,145.95
2019-03-31T03:14:06.876Z,147.05
2019-03-31T03:16:36.267Z,139.85
2019-03-31T03:19:05.506Z,145.00
2019-03-31T03:21:34.710Z,131.40
2019-03-31T03:24:03.909Z,144.90
2019-03-31T03:26:33.147Z,131.55
2019-03-31T03:29:02.382Z,152.97
2019-03-31T03:31:31.598Z,139.15
2019-03-31T03:34:01.027Z,155.52
2019-03-31T03:36:30.322Z,130.03
2019-03-31T03:38:59.535Z,156.22
2019-03-31T03:41:28.837Z,150.75
2019-03-31T03:44:02.356Z,138.65
2019-03-31T03:46:29.018Z,122.92
2019-03-31T03:48:58.436Z,115.25
2019-03-31T03:51:27.713Z,109.40
2019-03-31T03:53:56.952Z,115.52
2019-03-31T03:56:29.087Z,116.45
2019-03-31T03:58:57.109Z,108.37
2019-03-31T04:01:30.584Z,117.47
2019-03-31T04:03:59.802Z,113.12
2019-03-31T04:06:29.019Z,131.27
2019-03-31T04:08:58.315Z,137.75
2019-03-31T04:11:28.757Z,120.50
2019-03-31T04:13:58.378Z,126.58
2019-03-31T04:16:28.825Z,150.72
2019-03-31T04:18:58.123Z,135.05
2019-03-31T04:21:27.811Z,131.05
2019-03-31T04:23:57.583Z,149.97
2019-03-31T04:26:27.309Z,143.78
2019-03-31T04:28:56.566Z,144.72
2019-03-31T04:31:25.864Z,178.18
2019-03-31T04:33:55.073Z,218.80
2019-03-31T04:36:24.320Z,193.15
2019-03-31T04:38:53.606Z,217.97
2019-03-31T04:41:23.108Z,228.73
2019-03-31T04:43:52.346Z,179.35
2019-03-31T04:46:21.893Z,206.95
2019-03-31T04:48:51.191Z,201.37
2019-03-31T04:51:20.420Z,172.78
2019-03-31T04:53:49.625Z,150.97
2019-03-31T04:56:18.839Z,140.12
2019-03-31T04:58:48.147Z,149.25
2019-03-31T05:01:17.354Z,141.97
2019-03-31T05:03:46.555Z,133.65
2019-03-31T05:06:15.790Z,127.55
2019-03-31T05:08:44.985Z,125.10
2019-03-31T05:11:14.189Z,133.25
2019-03-31T05:13:43.439Z,122.60
2019-03-31T05:16:12.723Z,117.37
2019-03-31T05:18:41.936Z,125.85
2019-03-31T05:21:11.243Z,127.22
2019-03-31T05:23:40.470Z,148.07
2019-03-31T05:26:09.755Z,153.40
2019-03-31T05:28:38.995Z,136.20
2019-03-31T05:31:08.248Z,152.20
2019-03-31T05:33:37.452Z,151.45
2019-03-31T05:36:06.656Z,156.10
2019-03-31T05:38:35.894Z,154.03
2019-03-31T05:41:05.094Z,166.50
2019-03-31T05:43:34.297Z,164.80
2019-03-31T05:46:03.539Z,162.37
2019-03-31T05:48:32.738Z,146.05
2019-03-31T05:51:01.952Z,147.68
2019-03-31T05:53:31.190Z,158.80
2019-03-31T05:56:00.400Z,143.50
2019-03-31T05:58:29.603Z,154.63
2019-03-31T06:00:58.861Z,133.57
2019-03-31T06:03:28.065Z,149.90
2019-03-31T06:05:57.282Z,159.05
2019-03-31T06:08:26.507Z,144.35
2019-03-31T06:10:55.830Z,139.43
2019-03-31T06:13:25.038Z,134.95
2019-03-31T06:15:54.631Z,123.25
2019-03-31T06:18:23.830Z,126.85
2019-03-31T06:20:53.041Z,123.87
2019-03-31T06:23:22.283Z,108.10
2019-03-31T06:25:51.497Z,101.18
2019-03-31T06:28:20.710Z,82.17
2019-03-31T06:30:49.966Z,74.03
2019-03-31T06:33:19.200Z,73.10
2019-03-31T06:35:48.412Z,73.20
2019-03-31T06:38:17.641Z,78.83
2019-03-31T06:40:49.510Z,66.72
2019-03-31T06:43:18.704Z,68.70
2019-03-31T06:45:47.925Z,67.75
2019-03-31T06:48:17.149Z,67.03
2019-03-31T06:50:46.351Z,67.03
2019-03-31T06:53:15.574Z,69.47
2019-03-31T06:55:44.781Z,63.68
2019-03-31T06:58:14.016Z,64.00
2019-03-31T07:00:43.246Z,59.30
2019-03-31T07:03:12.470Z,60.05
2019-03-31T07:05:41.700Z,67.20
2019-03-31T07:08:10.916Z,56.20
2019-03-31T07:10:40.145Z,56.80
2019-03-31T07:13:09.346Z,61.30
2019-03-31T07:15:38.553Z,52.98
2019-03-31T07:18:07.752Z,54.75
2019-03-31T07:20:36.953Z,53.83
2019-03-31T07:23:06.175Z,46.98
2019-03-31T07:25:37.222Z,49.18
2019-03-31T07:28:06.402Z,41.00
2019-03-31T07:30:35.619Z,44.10
2019-03-31T07:33:04.844Z,42.48
2019-03-31T07:35:34.070Z,31.10
2019-03-31T07:38:03.734Z,32.00
2019-03-31T07:40:32.925Z,35.80
2019-03-31T07:43:02.194Z,38.90
2019-03-31T07:45:31.414Z,25.68
2019-03-31T07:48:00.646Z,35.15
2019-03-31T07:50:29.855Z,32.50
2019-03-31T07:52:59.065Z,30.72
2019-03-31T07:55:28.310Z,26.65
2019-03-31T07:57:57.807Z,24.57
2019-03-31T08:00:27.088Z,28.85
2019-03-31T08:02:56.324Z,25.52
2019-03-31T08:05:32.868Z,27.90
2019-03-31T08:07:56.463Z,22.00
2019-03-31T08:10:25.941Z,15.72
2019-03-31T08:12:55.145Z,23.65
2019-03-31T08:15:24.377Z,19.48
2019-03-31T08:17:53.578Z,20.52
2019-03-31T08:20:22.878Z,17.92
2019-03-31T08:22:52.093Z,16.90
2019-03-31T08:25:21.319Z,19.02
2019-03-31T08:27:50.527Z,22.25
2019-03-31T08:30:19.940Z,20.30
2019-03-31T08:32:49.175Z,21.05
2019-03-31T08:35:18.559Z,17.98
2019-03-31T08:37:47.792Z,22.50
2019-03-31T08:40:18.083Z,17.75
2019-03-31T08:42:47.315Z,21.85
2019-03-31T08:45:16.603Z,15.75
2019-03-31T08:47:45.802Z,20.15
2019-03-31T08:50:15.333Z,17.92
2019-03-31T08:52:44.545Z,21.37
2019-03-31T08:55:14.400Z,20.32
2019-03-31T08:57:43.612Z,18.35
2019-03-31T09:00:24.954Z,16.23
2019-03-31T09:02:54.156Z,17.65
2019-03-31T09:05:23.432Z,13.22
2019-03-31T09:07:52.636Z,14.20
2019-03-31T09:10:21.840Z,18.15
2019-03-31T09:12:51.063Z,11.63
2019-03-31T09:15:20.255Z,11.78
2019-03-31T09:17:49.489Z,12.78
2019-03-31T09:20:19.275Z,13.05
2019-03-31T09:22:48.477Z,17.35
2019-03-31T09:25:17.705Z,11.75
2019-03-31T09:27:46.908Z,10.45
2019-03-31T09:30:16.630Z,12.33
2019-03-31T09:32:45.921Z,12.33
2019-03-31T09:35:15.287Z,13.68
2019-03-31T09:37:44.517Z,15.90
2019-03-31T09:40:15.607Z,15.05
2019-03-31T09:42:44.818Z,16.70
2019-03-31T09:45:15.687Z,17.73
2019-03-31T09:47:44.894Z,14.35
2019-03-31T09:50:17.216Z,16.10
2019-03-31T09:52:46.367Z,19.27
2019-03-31T09:55:16.023Z,16.07
2019-03-31T09:57:45.267Z,15.78
2019-03-31T10:00:16.886Z,18.85
2019-03-31T10:02:46.079Z,13.85
2019-03-31T10:05:16.592Z,14.98
2019-03-31T10:07:46.754Z,15.95
2019-03-31T10:10:31.590Z,13.62
2019-03-31T10:13:00.876Z,15.13
2019-03-31T10:15:30.074Z,13.45
2019-03-31T10:17:59.389Z,13.75
2019-03-31T10:20:31.510Z,21.00
2019-03-31T10:22:59.620Z,17.10
2019-03-31T10:25:28.821Z,15.65
2019-03-31T10:27:58.052Z,8.73
2019-03-31T10:30:35.236Z,12.33
2019-03-31T10:33:04.814Z,8.55
2019-03-31T10:35:34.187Z,10.63
2019-03-31T10:38:03.967Z,10.35
2019-03-31T10:40:33.253Z,10.58
2019-03-31T10:43:02.538Z,10.70
2019-03-31T10:45:31.762Z,11.18
2019-03-31T10:48:00.962Z,7.95
2019-03-31T10:50:30.229Z,6.75
2019-03-31T10:52:59.480Z,18.92
2019-03-31T10:55:28.677Z,6.90
2019-03-31T10:57:57.879Z,9.13
2019-03-31T11:00:36.844Z,9.68
2019-03-31T11:03:07.885Z,8.05
2019-03-31T11:05:37.368Z,9.43
2019-03-31T11:08:07.317Z,8.20
2019-03-31T11:10:37.051Z,10.98
2019-03-31T11:13:06.432Z,9.23
2019-03-31T11:15:35.818Z,8.43
2019-03-31T11:18:05.218Z,6.00
2019-03-31T11:20:34.482Z,9.48
2019-03-31T11:23:06.654Z,10.93
2019-03-31T11:25:35.882Z,6.85
2019-03-31T11:28:05.181Z,9.30
2019-03-31T11:30:34.377Z,9.80
2019-03-31T11:33:07.317Z,8.03
2019-03-31T11:35:34.927Z,10.48
2019-03-31T11:38:04.216Z,11.22
2019-03-31T11:40:33.425Z,7.25
2019-03-31T11:43:02.620Z,9.70
2019-03-31T11:45:32.226Z,8.93
2019-03-31T11:48:01.437Z,10.45
2019-03-31T11:50:30.709Z,11.68
2019-03-31T11:52:59.948Z,8.18
2019-03-31T11:55:29.134Z,8.18
2019-03-31T11:57:58.332Z,6.95
2019-03-31T12:00:28.821Z,10.43
2019-03-31T12:02:58.024Z,15.03
2019-03-31T12:05:27.474Z,8.95
2019-03-31T12:07:56.702Z,10.78
2019-03-31T12:10:25.892Z,10.05
2019-03-31T12:12:55.087Z,12.47
2019-03-31T12:15:24.308Z,10.28
2019-03-31T12:17:53.508Z,10.48
2019-03-31T12:20:22.779Z,6.10
2019-03-31T12:22:52.005Z,11.48
2019-03-31T12:25:21.208Z,12.00
2019-03-31T12:27:50.422Z,9.75
2019-03-31T12:30:30.040Z,11.73
2019-03-31T12:32:59.402Z,8.13
2019-03-31T12:35:28.616Z,8.73
2019-03-31T12:37:57.818Z,10.93
2019-03-31T12:40:31.941Z,8.15
2019-03-31T12:43:01.142Z,10.28
2019-03-31T12:45:30.474Z,7.28
2019-03-31T12:48:01.383Z,8.00
2019-03-31T12:50:30.975Z,8.05
2019-03-31T12:53:00.278Z,5.53
2019-03-31T12:55:29.584Z,8.43
2019-03-31T12:57:58.936Z,7.55
2019-03-31T13:00:28.433Z,9.45
2019-03-31T13:02:57.733Z,7.83
2019-03-31T13:05:26.961Z,9.10
2019-03-31T13:07:57.053Z,8.50
2019-03-31T13:10:26.335Z,6.87
2019-03-31T13:12:55.849Z,5.30
2019-03-31T13:15:25.134Z,11.15
2019-03-31T13:17:54.326Z,4.58
2019-03-31T13:20:23.626Z,8.43
2019-03-31T13:22:52.828Z,7.08
2019-03-31T13:25:22.020Z,7.30
2019-03-31T13:27:51.246Z,7.40
2019-03-31T13:30:22.017Z,5.58
2019-03-31T13:32:51.465Z,3.65
2019-03-31T13:35:20.798Z,8.25
2019-03-31T13:37:49.999Z,10.32
2019-03-31T13:40:19.266Z,8.15
2019-03-31T13:42:48.594Z,11.38
2019-03-31T13:45:17.942Z,6.65
2019-03-31T13:47:47.136Z,12.00
2019-03-31T13:50:16.533Z,9.95
2019-03-31T13:52:45.727Z,4.80
2019-03-31T13:55:15.090Z,6.67
2019-03-31T13:57:45.140Z,6.15
2019-03-31T14:00:25.427Z,7.58
2019-03-31T14:02:50.307Z,9.18
2019-03-31T14:05:20.088Z,10.18
2019-03-31T14:07:49.323Z,10.40
2019-03-31T14:10:18.544Z,6.00
2019-03-31T14:12:49.320Z,5.60
2019-03-31T14:15:19.768Z,7.25
2019-03-31T14:17:49.213Z,7.53
2019-03-31T14:20:18.450Z,6.58
2019-03-31T14:22:47.655Z,5.95
2019-03-31T14:25:16.853Z,7.85
2019-03-31T14:27:46.077Z,7.83
2019-03-31T14:30:15.434Z,9.85
2019-03-31T14:32:44.663Z,7.00
2019-03-31T14:35:13.879Z,6.30
2019-03-31T14:37:43.077Z,6.72
2019-03-31T14:40:12.390Z,6.28
2019-03-31T14:42:41.690Z,8.68
2019-03-31T14:45:14.259Z,7.10
2019-03-31T14:47:43.500Z,8.68
2019-03-31T14:50:17.784Z,10.93
2019-03-31T14:52:47.015Z,8.65
2019-03-31T14:55:16.222Z,10.25
2019-03-31T14:57:45.417Z,8.40
2019-03-31T15:00:15.497Z,10.00
2019-03-31T15:02:44.838Z,8.43
2019-03-31T15:05:14.037Z,13.32
2019-03-31T15:07:43.237Z,9.00
2019-03-31T15:10:12.534Z,10.45
2019-03-31T15:12:41.760Z,5.87
2019-03-31T15:15:11.102Z,7.28
2019-03-31T15:17:41.145Z,10.03
2019-03-31T15:20:10.600Z,5.30
2019-03-31T15:22:39.794Z,9.98
2019-03-31T15:25:09.069Z,5.90
2019-03-31T15:27:38.297Z,6.95
2019-03-31T15:30:07.711Z,8.05
2019-03-31T15:32:36.912Z,6.55
2019-03-31T15:35:06.700Z,7.15
2019-03-31T15:37:36.300Z,10.18
2019-03-31T15:40:06.111Z,7.85
2019-03-31T15:42:35.338Z,9.13
2019-03-31T15:45:04.946Z,7.67
2019-03-31T15:47:34.150Z,4.75
2019-03-31T15:50:03.434Z,9.53
2019-03-31T15:52:32.654Z,8.13
2019-03-31T15:55:01.849Z,9.88
2019-03-31T15:57:31.041Z,10.68
2019-03-31T16:00:00.375Z,5.75
2019-03-31T16:02:29.871Z,6.47
2019-03-31T16:04:59.139Z,7.75
2019-03-31T16:07:28.337Z,7.65
2019-03-31T16:09:57.044Z,6.67
2019-03-31T16:12:26.022Z,7.90
2019-03-31T16:14:54.688Z,8.53
2019-03-31T16:17:23.719Z,8.35
2019-03-31T16:19:52.383Z,12.55
2019-03-31T16:22:21.046Z,11.68
2019-03-31T16:24:51.957Z,6.12
2019-03-31T16:27:20.624Z,8.48
2019-03-31T16:29:49.293Z,6.87
2019-03-31T16:32:17.986Z,9.48
2019-03-31T16:34:46.668Z,8.78
2019-03-31T16:37:15.351Z,9.45
2019-03-31T16:39:44.040Z,6.12
2019-03-31T16:42:12.729Z,10.82
2019-03-31T16:44:41.418Z,9.15
2019-03-31T16:47:10.104Z,8.10
2019-03-31T16:49:38.766Z,12.23
2019-03-31T16:52:07.428Z,7.67
2019-03-31T16:54:36.113Z,8.08
2019-03-31T16:57:04.794Z,6.65
2019-03-31T16:59:33.454Z,5.97
2019-03-31T17:02:02.141Z,9.83
2019-03-31T17:04:30.879Z,11.70
2019-03-31T17:06:59.846Z,9.63
2019-03-31T17:09:28.539Z,11.38
2019-03-31T17:11:57.210Z,8.73
2019-03-31T17:14:26.215Z,6.30
2019-03-31T17:16:54.881Z,10.50
2019-03-31T17:19:23.538Z,7.00
2019-03-31T17:21:52.208Z,10.28
2019-03-31T17:24:20.888Z,8.10
2019-03-31T17:26:49.857Z,7.40
2019-03-31T17:29:18.528Z,12.18
2019-03-31T17:31:47.205Z,9.83
2019-03-31T17:34:15.866Z,4.50
2019-03-31T17:36:44.596Z,10.40
2019-03-31T17:39:13.260Z,9.58
2019-03-31T17:41:41.924Z,8.70
2019-03-31T17:44:10.636Z,7.83
2019-03-31T17:46:39.359Z,3.47
2019-03-31T17:49:08.016Z,13.85
2019-03-31T17:51:36.702Z,4.30
2019-03-31T17:54:06.402Z,10.70
2019-03-31T17:56:35.296Z,7.15
2019-03-31T17:59:04.305Z,8.90
2019-03-31T18:01:33.062Z,6.87
2019-03-31T18:04:01.716Z,6.85
2019-03-31T18:06:30.375Z,6.70
2019-03-31T18:08:59.028Z,5.90
2019-03-31T18:11:27.699Z,9.65
2019-03-31T18:13:56.354Z,7.70
2019-03-31T18:16:25.039Z,10.35
2019-03-31T18:18:53.695Z,6.55
2019-03-31T18:21:22.342Z,8.28
2019-03-31T18:23:51.019Z,9.65
2019-03-31T18:26:19.668Z,7.28
2019-03-31T18:28:48.316Z,3.98
2019-03-31T18:31:16.998Z,8.13
2019-03-31T18:33:45.643Z,9.28
2019-03-31T18:36:14.317Z,9.15
2019-03-31T18:38:43.014Z,6.87
2019-03-31T18:41:11.662Z,6.72
2019-03-31T18:43:51.116Z,3.75
2019-03-31T18:46:11.115Z,7.45
2019-03-31T18:48:39.751Z,5.45
2019-03-31T18:51:08.715Z,10.55
2019-03-31T18:53:45.125Z,7.87
2019-03-31T18:56:35.637Z,10.10
2019-03-31T18:59:22.387Z,6.08
2019-03-31T19:01:59.689Z,6.03
2019-03-31T19:04:53.124Z,10.25
2019-03-31T19:07:30.583Z,7.42
2019-03-31T19:10:24.931Z,7.60
2019-03-31T19:13:10.806Z,9.45
2019-03-31T19:15:54.018Z,9.80
2019-03-31T19:18:31.003Z,4.22
2019-03-31T19:21:21.552Z,5.50
2019-03-31T19:24:12.017Z,4.00
2019-03-31T19:26:50.354Z,13.88
2019-03-31T19:29:36.932Z,6.55
2019-03-31T19:32:14.848Z,9.90
2019-03-31T19:34:57.025Z,9.75
2019-03-31T19:37:47.792Z,7.90
2019-03-31T19:40:47.791Z,8.10
2019-03-31T19:43:25.576Z,7.87
2019-03-31T19:46:05.515Z,9.05
2019-03-31T19:48:51.623Z,9.00
2019-03-31T19:51:39.639Z,6.95
2019-03-31T19:54:33.347Z,9.20
2019-03-31T20:00:03.499Z,6.10
2019-03-31T20:02:54.048Z,5.58
2019-03-31T20:05:54.197Z,12.82
2019-03-31T20:08:57.225Z,5.50
2019-03-31T20:11:50.486Z,9.35
2019-03-31T20:14:37.063Z,12.53
2019-03-31T20:17:15.978Z,14.78
2019-03-31T20:19:56.669Z,8.65
2019-03-31T20:22:38.642Z,9.83
2019-03-31T20:25:21.684Z,8.50
2019-03-31T20:28:12.166Z,10.50
2019-03-31T20:30:52.656Z,8.63
2019-03-31T20:33:37.825Z,9.70
2019-03-31T20:36:25.544Z,11.03
2019-03-31T20:39:12.141Z,7.37
2019-03-31T20:41:51.991Z,11.18
2019-03-31T20:44:20.673Z,12.15
2019-03-31T20:46:49.746Z,6.15
2019-03-31T20:49:18.401Z,10.65
2019-03-31T20:51:47.060Z,10.23
2019-03-31T20:54:15.745Z,6.20
2019-03-31T20:56:44.412Z,10.38
2019-03-31T20:59:13.072Z,12.37
2019-03-31T21:01:41.754Z,6.85
2019-03-31T21:04:10.418Z,6.87
2019-03-31T21:06:39.103Z,14.65
2019-03-31T21:09:09.074Z,10.50
2019-03-31T21:11:37.722Z,9.80
2019-03-31T21:14:06.471Z,6.75
2019-03-31T21:16:35.148Z,15.75
2019-03-31T21:19:03.797Z,17.02
2019-03-31T21:21:32.458Z,17.20
2019-03-31T21:24:01.140Z,9.45
2019-03-31T21:26:29.875Z,14.35
2019-03-31T21:28:58.549Z,12.75
2019-03-31T21:31:27.225Z,7.72
2019-03-31T21:33:55.892Z,10.35
2019-03-31T21:36:24.551Z,6.67
2019-03-31T21:38:53.226Z,9.38
2019-03-31T21:41:21.911Z,10.28
2019-03-31T21:43:50.589Z,14.45
2019-03-31T21:46:19.240Z,5.85
2019-03-31T21:48:47.912Z,11.73
2019-03-31T21:51:16.560Z,5.85
2019-03-31T21:53:45.233Z,7.87
2019-03-31T21:56:13.941Z,5.20
2019-03-31T21:58:42.572Z,6.80
2019-03-31T22:01:11.299Z,7.67
2019-03-31T22:03:39.948Z,10.18
2019-03-31T22:06:08.780Z,4.12
2019-03-31T22:08:37.435Z,8.53
2019-03-31T22:11:06.088Z,6.67
2019-03-31T22:13:34.770Z,10.48
2019-03-31T22:16:03.418Z,9.90
2019-03-31T22:18:32.170Z,5.65
2019-03-31T22:21:00.828Z,9.25
2019-03-31T22:23:29.478Z,12.37
2019-03-31T22:25:58.142Z,6.22
2019-03-31T22:28:26.870Z,13.00
2019-03-31T22:30:55.553Z,10.28
2019-03-31T22:33:24.297Z,8.40
2019-03-31T22:36:10.898Z,13.68
2019-03-31T22:38:39.580Z,6.78
2019-03-31T22:41:08.273Z,7.65
2019-03-31T22:43:36.931Z,11.15
2019-03-31T22:46:05.654Z,9.88
2019-03-31T22:48:34.336Z,5.83
2019-03-31T22:51:02.987Z,10.65
2019-03-31T22:53:31.682Z,5.97
2019-03-31T22:56:00.341Z,9.98
2019-03-31T22:58:29.003Z,8.30
2019-03-31T23:00:57.668Z,4.47
2019-03-31T23:03:26.345Z,5.20
2019-03-31T23:05:54.988Z,2.95
2019-03-31T23:08:23.635Z,9.43
2019-03-31T23:10:52.320Z,11.68
2019-03-31T23:13:20.989Z,11.50
2019-03-31T23:15:49.726Z,15.90
2019-03-31T23:18:18.400Z,6.80
2019-03-31T23:20:47.107Z,7.92
2019-03-31T23:23:15.785Z,9.10
2019-03-31T23:25:44.475Z,7.62
2019-03-31T23:28:13.128Z,22.65
2019-03-31T23:30:41.773Z,7.70
2019-03-31T23:33:10.461Z,7.28
2019-03-31T23:35:39.111Z,4.78
2019-03-31T23:38:07.789Z,11.70
2019-03-31T23:40:36.492Z,15.38
2019-03-31T23:43:05.220Z,8.83
2019-03-31T23:45:34.271Z,9.95
2019-03-31T23:48:02.934Z,10.03
2019-03-31T23:50:31.587Z,6.72
2019-03-31T23:53:00.264Z,8.87
2019-03-31T23:55:28.920Z,9.58
2019-03-31T23:57:57.575Z,12.07
